map of YMA home
YMA - Airport
Location
City:  Mayo, Yukon, Canada
Name:Mayo Airport
ICAO:CYMA
IATA:YMA

Details
Type:Airport (Airfield)
Use:Public/Civil
Latitude:6337'00"N (63.616667)
Longitude:13552'08"W (-135.868888)
Elevation:1653 ft (504 m)
Variation:19.88E (WMM2015 magnetic declination)
-0.41 annual change
Runways:1
Longest:4843 ft (1476 m)

Weather
METAR:CYMA 131800Z 00000KT 20SM FEW003 BKN210 M26/M29 A2928 RMK ST2CS5 CLIMAT -22.8/-26.4/0.0 47008 SLP979
TAF:CYMA 131738Z 1318/1406 VRB03KT P6SM SCT003 BKN240 PROB30 1318/1321 1SM BR BKN003
FM140200 VRB03KT P6SM FEW015 BKN060
RMK NXT FCST BY 140000Z

Related Locations
Nearby:
Farthest:NZSP: 10600 mi / 17059 km
Amundsen-Scott South Pole Station [Jack F. Paulus Skiway], AQ

Find:

   beyond  
but within

Other Information
Maps:
NOTAMs:
Links:
Sources:

  
  • flag of Canada
  • flag of Yukon
  

Airport Diagram

Airport diagram for YMA

Airport diagram PDF

Sectional Chart

Flight Planning
at skyvector.com

Satellite Image

Google Maps Satellite view

 

Copyright © 2004-2018 Karl L. Swartz. All rights reserved.
The Great Circle Mapper name and logo are trademarks of the Great Circle Mapper.
All other trademarks mentioned herein belong to their respective owners.
Please see credits for attibutions and further copyright information.

  Follow gcmap on Facebook Follow gcmap on Twitter Follow gcmap on Google+ GCmap on LinkedIn

hCard Microformat

Geo Microformat